createdAt,value
2022-12-23T00:00:19.989Z,98.74
2022-12-23T00:02:56.183Z,98.88
2022-12-23T00:05:22.875Z,98.52
2022-12-23T00:07:55.321Z,98.39
2022-12-23T00:10:22.648Z,98.66
2022-12-23T00:13:08.230Z,98.33
2022-12-23T00:15:34.713Z,98.58
2022-12-23T00:18:01.263Z,98.21
2022-12-23T00:20:34.382Z,98.23
2022-12-23T00:23:07.480Z,98.19
2022-12-23T00:25:44.463Z,98.12
2022-12-23T00:28:15.000Z,98.02
2022-12-23T00:30:56.354Z,98.23
2022-12-23T00:33:25.676Z,98.34
2022-12-23T00:35:53.109Z,98.49
2022-12-23T00:38:39.606Z,98.08
2022-12-23T00:41:29.341Z,98.26
2022-12-23T00:43:58.399Z,98.11
2022-12-23T00:46:25.607Z,98.05
2022-12-23T00:49:11.142Z,97.96
2022-12-23T00:51:37.563Z,97.68
2022-12-23T00:54:06.797Z,98.16
2022-12-23T00:56:33.813Z,97.91
2022-12-23T00:59:00.545Z,97.98
2022-12-23T01:01:45.967Z,98.01
2022-12-23T01:04:32.735Z,98.14
2022-12-23T01:07:03.387Z,97.76
2022-12-23T01:09:29.837Z,97.86
2022-12-23T01:11:57.338Z,97.98
2022-12-23T01:14:24.356Z,97.91
2022-12-23T01:16:50.891Z,97.70
2022-12-23T01:19:17.461Z,98.02
2022-12-23T01:21:44.036Z,97.97
2022-12-23T01:24:10.531Z,97.90
2022-12-23T01:26:37.010Z,97.98
2022-12-23T01:29:03.417Z,97.88
2022-12-23T01:31:30.203Z,97.79
2022-12-23T01:33:56.959Z,98.05
2022-12-23T01:36:23.806Z,97.88
2022-12-23T01:38:50.283Z,97.69
2022-12-23T01:41:39.598Z,97.70
2022-12-23T01:44:43.573Z,97.90
2022-12-23T01:47:14.728Z,97.55
2022-12-23T01:49:42.682Z,97.55
2022-12-23T01:52:10.806Z,97.75
2022-12-23T01:54:37.845Z,97.34
2022-12-23T01:57:04.524Z,97.52
2022-12-23T01:59:49.597Z,97.62
2022-12-23T02:02:34.509Z,97.28
2022-12-23T02:05:02.033Z,97.55
2022-12-23T02:07:47.631Z,97.20
2022-12-23T02:10:15.984Z,97.04
2022-12-23T02:12:52.957Z,97.14
2022-12-23T02:15:57.319Z,97.28
2022-12-23T02:18:29.442Z,97.11
2022-12-23T02:20:58.868Z,97.02
2022-12-23T02:23:34.488Z,97.01
2022-12-23T02:26:20.573Z,96.71
2022-12-23T02:28:46.896Z,97.01
2022-12-23T02:31:29.277Z,96.80
2022-12-23T02:34:07.995Z,96.83
2022-12-23T02:36:34.382Z,97.08
2022-12-23T02:39:14.900Z,96.94
2022-12-23T02:41:55.240Z,97.04
2022-12-23T02:44:35.159Z,96.62
2022-12-23T02:47:10.231Z,96.96
2022-12-23T02:49:41.446Z,96.80
2022-12-23T02:52:13.997Z,97.11
2022-12-23T02:54:46.973Z,96.58
2022-12-23T02:57:17.126Z,96.58
2022-12-23T02:59:53.938Z,96.94
2022-12-23T03:02:20.528Z,96.67
2022-12-23T03:04:47.041Z,97.08
2022-12-23T03:07:39.683Z,96.70
2022-12-23T03:10:26.200Z,96.76
2022-12-23T03:13:02.663Z,96.99
2022-12-23T03:15:57.252Z,96.92
2022-12-23T03:18:29.515Z,96.99
2022-12-23T03:21:05.888Z,96.98
2022-12-23T03:23:59.877Z,97.06
2022-12-23T03:26:40.479Z,97.12
2022-12-23T03:29:27.150Z,97.33
2022-12-23T03:31:57.532Z,97.02
2022-12-23T03:34:29.940Z,97.01
2022-12-23T03:37:00.674Z,97.08
2022-12-23T03:39:34.527Z,96.96
2022-12-23T03:42:10.804Z,97.16
2022-12-23T03:45:19.360Z,97.17
2022-12-23T03:47:44.515Z,97.21
2022-12-23T03:50:17.417Z,97.06
2022-12-23T03:52:46.575Z,96.88
2022-12-23T03:55:20.648Z,97.18
2022-12-23T03:57:50.982Z,96.87
2022-12-23T04:00:20.485Z,96.90
2022-12-23T04:03:02.103Z,97.11
2022-12-23T04:05:36.011Z,96.80
2022-12-23T04:08:17.310Z,96.81
2022-12-23T04:10:43.769Z,96.72
2022-12-23T04:13:10.299Z,96.65
2022-12-23T04:15:43.491Z,96.93
2022-12-23T04:18:11.004Z,97.01
2022-12-23T04:20:37.924Z,96.88
2022-12-23T04:23:04.498Z,96.79
2022-12-23T04:25:33.587Z,96.50
2022-12-23T04:28:00.102Z,96.55
2022-12-23T04:30:31.664Z,96.78
2022-12-23T04:33:01.667Z,96.84
2022-12-23T04:35:28.110Z,96.74
2022-12-23T04:37:54.537Z,96.74
2022-12-23T04:40:21.040Z,96.83
2022-12-23T04:42:47.450Z,96.71
2022-12-23T04:45:13.935Z,96.63
2022-12-23T04:47:40.767Z,96.64
2022-12-23T04:50:08.221Z,96.36
2022-12-23T04:52:34.641Z,96.52
2022-12-23T04:55:01.117Z,96.44
2022-12-23T04:57:27.643Z,96.37
2022-12-23T04:59:53.975Z,96.47
2022-12-23T05:02:20.465Z,96.29
2022-12-23T05:04:46.951Z,96.12
2022-12-23T05:07:13.288Z,96.39
2022-12-23T05:09:39.759Z,96.41
2022-12-23T05:12:06.253Z,96.16
2022-12-23T05:14:32.866Z,96.20
2022-12-23T05:17:07.167Z,96.18
2022-12-23T05:19:33.932Z,96.25
2022-12-23T05:22:00.327Z,96.27
2022-12-23T05:24:26.757Z,96.28
2022-12-23T05:26:59.647Z,96.12
2022-12-23T05:29:27.049Z,96.22
2022-12-23T05:31:53.556Z,95.94
2022-12-23T05:34:20.193Z,95.84
2022-12-23T05:36:46.623Z,95.83
2022-12-23T05:39:13.048Z,95.94
2022-12-23T05:41:39.408Z,96.15
2022-12-23T05:44:05.850Z,96.10
2022-12-23T05:46:34.316Z,96.17
2022-12-23T05:49:00.674Z,96.08
2022-12-23T05:51:27.070Z,96.16
2022-12-23T05:53:53.458Z,96.16
2022-12-23T05:56:19.858Z,96.10
2022-12-23T05:58:48.534Z,96.09
2022-12-23T06:01:14.913Z,95.75
2022-12-23T06:03:41.469Z,95.94
2022-12-23T06:06:08.237Z,95.96
2022-12-23T06:08:34.882Z,96.06
2022-12-23T06:11:07.605Z,95.92
2022-12-23T06:13:34.301Z,96.09
2022-12-23T06:16:00.965Z,96.16
2022-12-23T06:18:27.725Z,95.97
2022-12-23T06:20:54.228Z,95.80
2022-12-23T06:23:20.670Z,96.03
2022-12-23T06:25:47.034Z,96.09
2022-12-23T06:28:13.472Z,95.91
2022-12-23T06:30:39.899Z,96.17
2022-12-23T06:33:06.382Z,96.06
2022-12-23T06:35:32.729Z,96.20
2022-12-23T06:37:59.063Z,95.88
2022-12-23T06:40:26.006Z,95.86
2022-12-23T06:42:52.441Z,95.95
2022-12-23T06:45:18.793Z,95.57
2022-12-23T06:47:45.214Z,95.71
2022-12-23T06:50:11.783Z,95.64
2022-12-23T06:52:38.306Z,95.76
2022-12-23T06:55:05.401Z,95.98
2022-12-23T06:57:31.832Z,96.13
2022-12-23T06:59:58.196Z,96.08
2022-12-23T07:02:25.202Z,96.24
2022-12-23T07:04:52.060Z,96.21
2022-12-23T07:07:18.642Z,96.31
2022-12-23T07:09:45.079Z,96.03
2022-12-23T07:12:11.491Z,96.27
2022-12-23T07:14:37.859Z,96.15
2022-12-23T07:17:04.285Z,96.52
2022-12-23T07:19:31.015Z,96.44
2022-12-23T07:21:57.507Z,96.50
2022-12-23T07:24:24.081Z,96.37
2022-12-23T07:26:51.144Z,96.13
2022-12-23T07:29:17.680Z,96.41
2022-12-23T07:31:44.165Z,96.40
2022-12-23T07:34:10.617Z,96.44
2022-12-23T07:36:37.079Z,96.48
2022-12-23T07:39:08.848Z,96.39
2022-12-23T07:41:35.272Z,96.21
2022-12-23T07:44:01.892Z,96.42
2022-12-23T07:46:28.411Z,96.68
2022-12-23T07:48:55.018Z,96.79
2022-12-23T07:51:21.587Z,96.97
2022-12-23T07:53:50.226Z,96.62
2022-12-23T07:56:17.171Z,96.57
2022-12-23T07:58:43.612Z,96.61
2022-12-23T08:01:10.129Z,96.50
2022-12-23T08:03:36.762Z,96.37
2022-12-23T08:06:08.350Z,96.67
2022-12-23T08:08:35.418Z,96.52
2022-12-23T08:11:07.668Z,96.18
2022-12-23T08:13:37.062Z,96.30
2022-12-23T08:16:05.166Z,96.46
2022-12-23T08:18:34.119Z,96.55
2022-12-23T08:21:04.680Z,96.91
2022-12-23T08:23:31.944Z,96.45
2022-12-23T08:26:08.612Z,96.72
2022-12-23T08:28:36.604Z,96.38
2022-12-23T08:31:23.931Z,96.61
2022-12-23T08:33:54.089Z,96.52
2022-12-23T08:36:24.910Z,96.47
2022-12-23T08:38:53.745Z,96.37
2022-12-23T08:41:26.136Z,96.56
2022-12-23T08:43:53.004Z,96.56
2022-12-23T08:46:19.907Z,96.64
2022-12-23T08:48:49.486Z,96.80
2022-12-23T08:51:18.048Z,96.57
2022-12-23T08:53:44.770Z,96.74
2022-12-23T08:56:14.936Z,96.65
2022-12-23T08:58:45.454Z,96.75
2022-12-23T09:01:15.161Z,96.40
2022-12-23T09:03:45.007Z,96.71
2022-12-23T09:06:23.172Z,96.55
2022-12-23T09:08:53.423Z,96.67
2022-12-23T09:11:22.744Z,96.70
2022-12-23T09:13:50.159Z,96.92
2022-12-23T09:16:17.277Z,96.66
2022-12-23T09:18:44.286Z,96.50
2022-12-23T09:21:16.795Z,96.51
2022-12-23T09:23:43.344Z,96.70
2022-12-23T09:26:11.108Z,96.90
2022-12-23T09:28:37.690Z,96.76
2022-12-23T09:31:11.894Z,96.88
2022-12-23T09:33:39.941Z,96.54
2022-12-23T09:36:06.949Z,96.90
2022-12-23T09:38:33.925Z,96.86
2022-12-23T09:41:34.842Z,97.18
2022-12-23T09:44:27.468Z,97.32
2022-12-23T09:47:00.681Z,97.40
2022-12-23T09:49:28.536Z,97.58
2022-12-23T09:52:01.378Z,97.74
2022-12-23T09:54:34.029Z,97.79
2022-12-23T09:57:03.756Z,97.98
2022-12-23T09:59:42.553Z,97.96
2022-12-23T10:02:45.254Z,98.01
2022-12-23T10:05:14.992Z,98.13
2022-12-23T10:08:15.223Z,98.33
2022-12-23T10:10:52.470Z,98.22
2022-12-23T10:13:37.534Z,98.66
2022-12-23T10:16:12.639Z,98.33
2022-12-23T10:18:45.196Z,98.51
2022-12-23T10:21:25.113Z,98.61
2022-12-23T10:23:55.707Z,98.65
2022-12-23T10:26:28.199Z,98.47
2022-12-23T10:29:01.380Z,98.62
2022-12-23T10:32:02.440Z,98.49
2022-12-23T10:34:50.070Z,98.68
2022-12-23T10:37:34.387Z,98.69
2022-12-23T10:40:19.199Z,98.76
2022-12-23T10:43:09.056Z,98.66
2022-12-23T10:46:13.502Z,98.83
2022-12-23T10:49:03.535Z,98.74
2022-12-23T10:51:37.499Z,98.75
2022-12-23T10:54:15.214Z,98.66
2022-12-23T10:56:43.278Z,99.19
2022-12-23T10:59:15.497Z,99.34
2022-12-23T11:01:43.385Z,99.04
2022-12-23T11:04:17.087Z,99.19
2022-12-23T11:07:10.622Z,99.17
2022-12-23T11:09:55.144Z,99.21
2022-12-23T11:12:40.482Z,99.12
2022-12-23T11:15:28.797Z,99.33
2022-12-23T11:18:14.531Z,99.42
2022-12-23T11:20:43.195Z,99.15
2022-12-23T11:23:26.110Z,99.27
2022-12-23T11:26:05.229Z,99.57
2022-12-23T11:28:34.243Z,99.65
2022-12-23T11:31:13.058Z,99.71
2022-12-23T11:34:01.777Z,99.62
2022-12-23T11:36:30.261Z,99.49
2022-12-23T11:39:11.797Z,99.88
2022-12-23T11:41:48.544Z,99.59
2022-12-23T11:44:28.443Z,99.51
2022-12-23T11:46:55.045Z,99.69
2022-12-23T11:49:31.428Z,99.65
2022-12-23T11:52:02.778Z,99.79
2022-12-23T11:54:29.723Z,99.74
2022-12-23T11:56:56.881Z,100.00
2022-12-23T11:59:42.106Z,99.70
2022-12-23T12:02:20.429Z,99.94
2022-12-23T12:04:58.949Z,99.87
2022-12-23T12:07:26.613Z,99.72
2022-12-23T12:09:57.763Z,99.98
2022-12-23T12:12:24.384Z,99.81
2022-12-23T12:14:54.254Z,100.00
2022-12-23T12:17:33.205Z,99.79
2022-12-23T12:20:24.140Z,100.00
2022-12-23T12:23:05.163Z,100.00
2022-12-23T12:25:48.783Z,99.87
2022-12-23T12:28:41.057Z,99.78
2022-12-23T12:31:25.871Z,99.89
2022-12-23T12:34:24.053Z,99.96
2022-12-23T12:36:59.989Z,99.77
2022-12-23T12:39:38.055Z,99.95
2022-12-23T12:42:14.847Z,100.00
2022-12-23T12:44:47.982Z,100.00
2022-12-23T12:47:52.262Z,100.00
2022-12-23T12:50:23.479Z,100.00
2022-12-23T12:52:51.701Z,100.00
2022-12-23T12:55:29.669Z,100.00
2022-12-23T12:57:56.183Z,100.00
2022-12-23T13:00:24.335Z,100.00
2022-12-23T13:03:15.215Z,100.00
2022-12-23T13:05:55.756Z,100.00
2022-12-23T13:08:40.257Z,100.00
2022-12-23T13:11:44.854Z,100.00
2022-12-23T13:14:22.457Z,100.00
2022-12-23T13:17:32.443Z,100.00
2022-12-23T13:20:24.113Z,100.00
2022-12-23T13:22:55.702Z,100.00
2022-12-23T13:25:29.493Z,100.00
2022-12-23T13:27:58.430Z,100.00
2022-12-23T13:30:32.137Z,100.00
2022-12-23T13:33:22.707Z,100.00
2022-12-23T13:36:11.492Z,100.00
2022-12-23T13:38:51.171Z,99.81
2022-12-23T13:41:40.085Z,99.89
2022-12-23T13:44:12.182Z,99.92
2022-12-23T13:46:46.916Z,99.78
2022-12-23T13:49:32.339Z,99.96
2022-12-23T13:52:19.947Z,99.93
2022-12-23T13:55:21.493Z,99.99
2022-12-23T13:58:01.490Z,100.00
2022-12-23T14:00:31.227Z,100.00
2022-12-23T14:02:57.608Z,100.00
2022-12-23T14:05:33.015Z,100.00
2022-12-23T14:08:02.179Z,100.00
2022-12-23T14:10:30.018Z,100.00
2022-12-23T14:13:05.929Z,100.00
2022-12-23T14:15:47.947Z,100.00
2022-12-23T14:18:20.441Z,100.00
2022-12-23T14:21:05.709Z,100.00
2022-12-23T14:23:39.721Z,100.00
2022-12-23T14:26:41.532Z,99.94
2022-12-23T14:29:27.767Z,99.87
2022-12-23T14:31:57.200Z,100.00
2022-12-23T14:34:26.345Z,100.00
2022-12-23T14:37:24.300Z,100.00
2022-12-23T14:39:51.521Z,100.00
2022-12-23T14:42:33.140Z,100.00
2022-12-23T14:45:33.582Z,100.00
2022-12-23T14:48:01.403Z,99.92
2022-12-23T14:50:34.797Z,100.00
2022-12-23T14:53:21.771Z,100.00
2022-12-23T14:55:49.944Z,100.00
2022-12-23T14:58:16.251Z,100.00
2022-12-23T15:01:16.971Z,100.00
2022-12-23T15:03:47.482Z,100.00
2022-12-23T15:06:21.417Z,100.00
2022-12-23T15:08:52.595Z,100.00
2022-12-23T15:11:26.931Z,100.00
2022-12-23T15:13:54.985Z,100.00
2022-12-23T15:16:30.738Z,100.00
2022-12-23T15:19:02.825Z,100.00
2022-12-23T15:21:36.287Z,100.00
2022-12-23T15:24:02.881Z,100.00
2022-12-23T15:26:32.554Z,100.00
2022-12-23T15:29:00.527Z,100.00
2022-12-23T15:31:31.416Z,100.00
2022-12-23T15:34:10.251Z,100.00
2022-12-23T15:36:43.897Z,100.00
2022-12-23T15:39:19.279Z,100.00
2022-12-23T15:41:47.222Z,100.00
2022-12-23T15:44:20.267Z,100.00
2022-12-23T15:46:50.801Z,99.93
2022-12-23T15:49:19.300Z,100.00
2022-12-23T15:52:07.955Z,100.00
2022-12-23T15:54:46.417Z,100.00
2022-12-23T15:57:18.062Z,100.00
2022-12-23T15:59:44.968Z,99.90
2022-12-23T16:05:07.978Z,100.00
2022-12-23T16:07:38.113Z,99.87
2022-12-23T16:10:25.048Z,99.99
2022-12-23T16:12:54.202Z,99.61
2022-12-23T16:15:25.722Z,99.92
2022-12-23T16:17:52.167Z,99.75
2022-12-23T16:20:23.758Z,100.00
2022-12-23T16:22:54.175Z,99.96
2022-12-23T16:25:50.156Z,99.51
2022-12-23T16:28:24.503Z,99.38
2022-12-23T16:30:57.464Z,99.67
2022-12-23T16:33:34.058Z,99.80
2022-12-23T16:36:18.793Z,100.00
2022-12-23T16:38:46.198Z,100.00
2022-12-23T16:41:12.953Z,100.00
2022-12-23T16:43:39.466Z,100.00
2022-12-23T16:46:08.276Z,100.00
2022-12-23T16:48:36.591Z,100.00
2022-12-23T16:51:09.418Z,100.00
2022-12-23T16:53:35.764Z,100.00
2022-12-23T16:56:02.772Z,100.00
2022-12-23T16:58:29.828Z,100.00
2022-12-23T17:01:03.273Z,100.00
2022-12-23T17:03:29.768Z,100.00
2022-12-23T17:05:57.670Z,99.99
2022-12-23T17:08:24.268Z,100.00
2022-12-23T17:10:51.240Z,100.00
2022-12-23T17:13:21.017Z,100.00
2022-12-23T17:15:47.605Z,100.00
2022-12-23T17:18:17.904Z,100.00
2022-12-23T17:20:46.157Z,100.00
2022-12-23T17:23:42.088Z,100.00
2022-12-23T17:26:08.626Z,100.00
2022-12-23T17:28:35.094Z,100.00
2022-12-23T17:31:01.685Z,100.00
2022-12-23T17:33:31.177Z,100.00
2022-12-23T17:35:58.697Z,100.00
2022-12-23T17:38:25.636Z,100.00
2022-12-23T17:40:52.259Z,100.00
2022-12-23T17:43:19.110Z,100.00
2022-12-23T17:45:45.791Z,100.00
2022-12-23T17:48:20.214Z,100.00
2022-12-23T17:50:48.860Z,100.00
2022-12-23T17:53:19.597Z,100.00
2022-12-23T17:55:46.538Z,100.00
2022-12-23T17:58:14.218Z,100.00
2022-12-23T18:00:41.454Z,99.93
2022-12-23T18:03:20.846Z,99.93
2022-12-23T18:05:47.493Z,99.90
2022-12-23T18:08:13.931Z,99.89
2022-12-23T18:10:41.022Z,99.92
2022-12-23T18:13:14.373Z,99.82
2022-12-23T18:15:43.236Z,99.92
2022-12-23T18:18:26.396Z,99.73
2022-12-23T18:20:59.985Z,99.75
2022-12-23T18:23:37.221Z,100.00
2022-12-23T18:26:03.831Z,99.90
2022-12-23T18:28:30.301Z,100.00
2022-12-23T18:30:57.017Z,99.92
2022-12-23T18:33:28.487Z,99.96
2022-12-23T18:35:55.001Z,100.00
2022-12-23T18:38:21.356Z,99.87
2022-12-23T18:40:52.084Z,99.81
2022-12-23T18:43:30.735Z,99.86
2022-12-23T18:45:57.237Z,99.94
2022-12-23T18:48:23.658Z,99.88
2022-12-23T18:50:52.070Z,99.97
2022-12-23T18:53:24.581Z,100.00
2022-12-23T18:55:52.920Z,100.00
2022-12-23T18:58:19.468Z,99.98
2022-12-23T19:00:46.990Z,100.00
2022-12-23T19:03:33.979Z,99.82
2022-12-23T19:06:06.508Z,100.00
2022-12-23T19:08:34.385Z,100.00
2022-12-23T19:11:01.494Z,99.73
2022-12-23T19:13:34.169Z,99.84
2022-12-23T19:16:03.904Z,100.00
2022-12-23T19:18:33.474Z,99.82
2022-12-23T19:21:04.331Z,99.63
2022-12-23T19:23:30.827Z,99.81
2022-12-23T19:28:42.695Z,99.93
2022-12-23T19:31:13.707Z,99.37
2022-12-23T19:33:48.425Z,99.57
2022-12-23T19:36:22.900Z,99.78
2022-12-23T19:38:50.019Z,99.61
2022-12-23T19:41:17.909Z,99.73
2022-12-23T19:43:46.437Z,99.78
2022-12-23T19:46:15.292Z,99.81
2022-12-23T19:48:43.206Z,99.70
2022-12-23T19:51:13.924Z,99.64
2022-12-23T19:53:41.548Z,99.84
2022-12-23T19:56:11.897Z,99.90
2022-12-23T19:58:41.387Z,99.84
2022-12-23T20:01:20.166Z,99.95
2022-12-23T20:03:51.587Z,99.85
2022-12-23T20:06:39.264Z,99.77
2022-12-23T20:09:15.979Z,99.93
2022-12-23T20:11:46.067Z,99.77
2022-12-23T20:14:21.911Z,99.79
2022-12-23T20:16:49.307Z,99.80
2022-12-23T20:19:16.850Z,99.58
2022-12-23T20:21:45.917Z,99.79
2022-12-23T20:24:13.788Z,99.55
2022-12-23T20:26:44.087Z,99.93
2022-12-23T20:29:10.654Z,99.39
2022-12-23T20:31:40.191Z,99.47
2022-12-23T20:34:08.745Z,99.32
2022-12-23T20:36:36.688Z,99.29
2022-12-23T20:39:04.718Z,99.46
2022-12-23T20:41:33.205Z,99.29
2022-12-23T20:44:33.172Z,99.19
2022-12-23T20:46:49.272Z,99.20
2022-12-23T20:49:15.706Z,99.40
2022-12-23T20:51:42.462Z,99.24
2022-12-23T20:54:09.473Z,99.60
2022-12-23T20:56:36.228Z,99.49
2022-12-23T20:59:03.996Z,99.52
2022-12-23T21:01:35.344Z,99.62
2022-12-23T21:04:05.277Z,99.49
2022-12-23T21:06:32.859Z,99.10
2022-12-23T21:09:05.121Z,98.55
2022-12-23T21:11:34.152Z,98.62
2022-12-23T21:14:06.098Z,98.58
2022-12-23T21:16:45.512Z,98.15
2022-12-23T21:19:24.744Z,97.45
2022-12-23T21:21:56.714Z,96.92
2022-12-23T21:24:23.399Z,96.96
2022-12-23T21:26:56.039Z,96.84
2022-12-23T21:29:22.787Z,96.67
2022-12-23T21:31:49.413Z,96.03
2022-12-23T21:34:15.798Z,96.02
2022-12-23T21:36:42.693Z,95.99
2022-12-23T21:39:14.872Z,95.62
2022-12-23T21:41:42.817Z,95.31
2022-12-23T21:44:11.553Z,95.61
2022-12-23T21:46:40.631Z,95.44
2022-12-23T21:49:13.018Z,95.58
2022-12-23T21:51:41.287Z,95.07
2022-12-23T21:54:15.242Z,95.13
2022-12-23T21:56:42.115Z,95.13
2022-12-23T21:59:13.574Z,95.05
2022-12-23T22:01:43.950Z,94.92
2022-12-23T22:04:18.312Z,94.85
2022-12-23T22:06:46.772Z,95.01
2022-12-23T22:09:16.131Z,95.27
2022-12-23T22:11:42.756Z,95.76
2022-12-23T22:14:12.046Z,95.90
2022-12-23T22:16:40.699Z,95.72
2022-12-23T22:19:08.735Z,96.05
2022-12-23T22:21:39.537Z,95.75
2022-12-23T22:24:07.347Z,95.53
2022-12-23T22:26:36.741Z,95.36
2022-12-23T22:29:06.272Z,95.44
2022-12-23T22:31:44.836Z,95.26
2022-12-23T22:34:14.505Z,95.00
2022-12-23T22:36:40.941Z,94.96
2022-12-23T22:39:08.254Z,95.04
2022-12-23T22:41:56.631Z,94.55
2022-12-23T22:44:25.041Z,94.59
2022-12-23T22:46:52.542Z,94.73
2022-12-23T22:49:19.179Z,94.29
2022-12-23T22:51:46.078Z,93.63
2022-12-23T22:54:12.548Z,93.55
2022-12-23T22:56:40.124Z,93.81
2022-12-23T22:59:06.772Z,93.65
2022-12-23T23:01:40.599Z,93.55
2022-12-23T23:04:07.874Z,93.38
2022-12-23T23:06:41.656Z,93.20
2022-12-23T23:09:15.345Z,93.38
2022-12-23T23:11:44.263Z,92.77
2022-12-23T23:14:11.905Z,93.02
2022-12-23T23:16:45.096Z,92.45
2022-12-23T23:19:12.387Z,92.05
2022-12-23T23:21:39.120Z,92.01
2022-12-23T23:24:06.099Z,92.23
2022-12-23T23:26:32.631Z,92.04
2022-12-23T23:29:00.127Z,91.84
2022-12-23T23:31:43.688Z,91.74
2022-12-23T23:34:12.225Z,91.62
2022-12-23T23:36:38.920Z,91.67
2022-12-23T23:39:05.310Z,91.86
2022-12-23T23:41:31.830Z,91.79
2022-12-23T23:43:58.405Z,91.79
2022-12-23T23:46:24.921Z,91.21
2022-12-23T23:48:51.517Z,91.05
2022-12-23T23:51:19.602Z,91.55
2022-12-23T23:53:47.309Z,91.51
2022-12-23T23:56:15.792Z,91.79
2022-12-23T23:58:44.714Z,91.32
